Time;durP1;ratioP1;P1;durP2;ratioP2;P2;SDS_P1;SDS_P2;PMS_P1;PMS_P2;Temp;Humidity;BMP_temperature;BMP_pressure;BME280_temperature;BME280_humidity;BME280_pressure;Samples;Min_cycle;Max_cycle;Signal;HPM_P1;HPM_P2
2023/04/20 00:01:02;;;;;;;10.73;6.73;;;9.80;99.90;;;;;;5070905;28;20032;-68
2023/04/20 00:03:28;;;;;;;15.03;7.83;;;9.70;99.90;;;;;;5071853;28;20055;-68
2023/04/20 00:05:54;;;;;;;13.23;7.20;;;9.70;99.90;;;;;;5083892;28;20274;-67
2023/04/20 00:08:19;;;;;;;13.03;7.47;;;9.80;99.90;;;;;;5082807;28;20046;-71
2023/04/20 00:10:45;;;;;;;12.03;7.50;;;9.60;99.90;;;;;;5074616;28;20032;-71
2023/04/20 00:13:11;;;;;;;12.17;7.20;;;9.50;99.90;;;;;;5071010;28;20503;-70
2023/04/20 00:15:37;;;;;;;13.15;6.88;;;9.60;99.90;;;;;;5075726;28;20531;-70
2023/04/20 00:18:03;;;;;;;12.30;8.02;;;9.60;99.90;;;;;;5070179;28;20048;-68
2023/04/20 00:20:29;;;;;;;10.23;6.87;;;9.50;99.90;;;;;;5069853;28;20012;-70
2023/04/20 00:22:55;;;;;;;9.97;6.57;;;9.70;99.90;;;;;;5071634;28;20432;-71
2023/04/20 00:25:20;;;;;;;10.68;7.50;;;9.60;99.90;;;;;;5068983;28;20021;-70
2023/04/20 00:27:46;;;;;;;11.60;7.23;;;9.50;99.90;;;;;;5053035;28;20688;-70
2023/04/20 00:30:12;;;;;;;11.40;7.07;;;9.60;99.90;;;;;;5071568;28;20025;-70
2023/04/20 00:32:38;;;;;;;10.98;7.53;;;9.50;99.90;;;;;;5068788;28;20107;-70
2023/04/20 00:35:04;;;;;;;14.53;7.70;;;9.40;99.90;;;;;;5068334;28;20139;-71
2023/04/20 00:37:29;;;;;;;9.63;6.07;;;9.50;99.90;;;;;;5069462;28;20056;-69
2023/04/20 00:39:56;;;;;;;8.70;6.53;;;9.40;99.90;;;;;;5075797;28;20137;-70
2023/04/20 00:42:22;;;;;;;10.60;6.85;;;9.40;99.90;;;;;;5068335;28;20033;-67
2023/04/20 00:44:49;;;;;;;10.73;6.80;;;9.40;99.90;;;;;;5071120;28;20100;-70
2023/04/20 00:47:15;;;;;;;15.57;7.32;;;9.30;99.90;;;;;;5070383;28;20029;-69
2023/04/20 00:49:41;;;;;;;11.38;7.38;;;9.10;99.90;;;;;;5069950;28;20035;-69
2023/04/20 00:52:07;;;;;;;9.23;7.30;;;9.20;99.90;;;;;;5071015;28;20028;-69
2023/04/20 00:54:34;;;;;;;10.20;6.70;;;9.20;99.90;;;;;;5070808;28;20372;-70
2023/04/20 00:57:00;;;;;;;;;;;9.10;99.90;;;;;;5068926;28;20039;-68
2023/04/20 00:59:25;;;;;;;9.77;7.00;;;9.20;99.90;;;;;;5068480;28;19920;-68
2023/04/20 01:01:51;;;;;;;15.90;7.23;;;9.20;99.90;;;;;;5068316;28;20032;-71
2023/04/20 01:04:17;;;;;;;11.10;8.03;;;9.30;99.90;;;;;;5070852;28;20039;-70
2023/04/20 01:06:43;;;;;;;11.27;7.68;;;9.30;99.90;;;;;;5068293;28;20126;-68
2023/04/20 01:09:11;;;;;;;10.33;7.70;;;9.20;99.90;;;;;;5070767;28;20131;-70
2023/04/20 01:11:38;;;;;;;15.00;8.55;;;9.20;99.90;;;;;;5046750;28;20495;-69
2023/04/20 01:14:03;;;;;;;13.93;8.75;;;9.10;99.90;;;;;;5070176;28;20416;-68
2023/04/20 01:16:30;;;;;;;12.40;7.70;;;9.00;99.90;;;;;;5066603;28;20511;-67
2023/04/20 01:18:56;;;;;;;12.80;7.35;;;8.80;99.90;;;;;;5070617;28;20068;-67
2023/04/20 01:21:22;;;;;;;11.00;7.73;;;8.80;99.90;;;;;;5074523;28;20077;-69
2023/04/20 01:23:47;;;;;;;11.50;7.80;;;8.90;99.90;;;;;;5070521;28;20028;-68
2023/04/20 01:26:16;;;;;;;10.32;7.50;;;8.90;99.90;;;;;;5070214;28;20082;-69
2023/04/20 01:28:42;;;;;;;13.23;7.57;;;8.90;99.90;;;;;;5073265;28;20063;-68
2023/04/20 01:31:09;;;;;;;11.45;6.88;;;8.80;99.90;;;;;;5069288;28;20108;-69
2023/04/20 01:33:35;;;;;;;12.63;7.85;;;8.70;99.90;;;;;;5067826;28;20067;-68
2023/04/20 01:36:01;;;;;;;18.98;8.75;;;8.70;99.90;;;;;;5070517;28;20500;-71
2023/04/20 01:38:27;;;;;;;11.82;8.07;;;8.60;99.90;;;;;;5069501;28;20048;-70
2023/04/20 01:40:54;;;;;;;14.67;8.17;;;8.60;99.90;;;;;;5068405;28;20017;-70
2023/04/20 01:43:20;;;;;;;13.95;7.85;;;8.50;99.90;;;;;;5070405;28;20415;-70
2023/04/20 01:45:46;;;;;;;10.18;6.90;;;8.40;99.90;;;;;;5070619;28;20035;-70
2023/04/20 01:48:11;;;;;;;13.17;7.47;;;8.40;99.90;;;;;;5070647;28;20477;-70
2023/04/20 01:50:37;;;;;;;18.50;8.50;;;8.40;99.90;;;;;;5070036;28;20027;-70
2023/04/20 01:53:03;;;;;;;18.07;7.90;;;8.40;99.90;;;;;;5079721;28;20028;-69
2023/04/20 01:55:28;;;;;;;15.03;7.83;;;8.50;99.90;;;;;;5081237;28;20035;-70
2023/04/20 01:57:54;;;;;;;11.03;7.70;;;8.40;99.90;;;;;;5073688;28;20384;-69
2023/04/20 02:00:20;;;;;;;12.70;8.00;;;8.40;99.90;;;;;;5073498;28;20468;-69
2023/04/20 02:02:47;;;;;;;10.70;7.53;;;8.30;99.90;;;;;;5068951;28;20377;-71
2023/04/20 02:05:12;;;;;;;14.25;7.90;;;8.30;99.90;;;;;;5072846;28;20024;-70
2023/04/20 02:07:38;;;;;;;12.33;7.60;;;8.40;99.90;;;;;;5067421;28;20028;-71
2023/04/20 02:10:04;;;;;;;19.97;9.17;;;8.40;99.90;;;;;;5071562;28;20032;-70
2023/04/20 02:12:29;;;;;;;26.85;8.30;;;8.40;99.90;;;;;;5073137;28;20029;-70
2023/04/20 02:14:55;;;;;;;11.70;7.30;;;8.30;99.90;;;;;;5076777;28;20404;-70
2023/04/20 02:17:21;;;;;;;12.87;7.97;;;8.40;99.90;;;;;;5070274;28;20077;-70
2023/04/20 02:19:46;;;;;;;16.67;7.40;;;8.40;99.90;;;;;;5072893;28;20047;-72
2023/04/20 02:22:12;;;;;;;15.10;8.23;;;8.40;99.90;;;;;;5075120;28;20039;-70
2023/04/20 02:24:40;;;;;;;13.45;7.88;;;8.30;99.90;;;;;;5073533;28;20074;-69
2023/04/20 02:27:05;;;;;;;11.27;8.68;;;8.30;99.90;;;;;;5071070;28;20024;-69
2023/04/20 02:29:31;;;;;;;14.43;8.23;;;8.20;99.90;;;;;;5067956;28;20025;-70
2023/04/20 02:31:57;;;;;;;15.67;8.30;;;8.20;99.90;;;;;;5069104;28;20039;-71
2023/04/20 02:34:23;;;;;;;16.90;8.40;;;8.20;99.90;;;;;;5055520;28;20454;-70
2023/04/20 02:36:49;;;;;;;20.00;8.68;;;8.10;99.90;;;;;;5072806;28;20120;-70
2023/04/20 02:39:14;;;;;;;18.93;8.37;;;8.00;99.90;;;;;;5071504;28;20173;-70
2023/04/20 02:41:40;;;;;;;24.40;8.37;;;7.90;99.90;;;;;;5068193;28;20070;-71
2023/04/20 02:44:06;;;;;;;19.23;8.67;;;8.00;99.90;;;;;;5072240;28;20558;-70
2023/04/20 02:46:31;;;;;;;18.37;8.30;;;8.00;99.90;;;;;;5055455;28;20392;-69
2023/04/20 02:48:57;;;;;;;17.53;8.90;;;7.90;99.90;;;;;;5069214;28;20386;-69
2023/04/20 02:51:22;;;;;;;21.90;7.70;;;7.90;99.90;;;;;;5069897;28;20040;-72
2023/04/20 02:53:48;;;;;;;20.23;7.80;;;7.90;99.90;;;;;;5070197;28;20017;-69
2023/04/20 02:56:14;;;;;;;23.63;8.63;;;7.90;99.90;;;;;;5071704;28;20025;-70
2023/04/20 02:58:39;;;;;;;17.63;8.10;;;7.90;99.90;;;;;;5056015;28;20055;-71
2023/04/20 03:01:06;;;;;;;25.57;8.30;;;8.00;99.90;;;;;;5071695;28;20074;-71
2023/04/20 03:03:31;;;;;;;19.45;8.90;;;8.00;99.90;;;;;;5067199;28;20017;-69
2023/04/20 03:05:57;;;;;;;18.77;8.60;;;8.00;99.90;;;;;;5070267;28;20036;-70
2023/04/20 03:08:22;;;;;;;12.53;7.87;;;7.90;99.90;;;;;;5069717;28;20068;-70
2023/04/20 03:10:48;;;;;;;11.77;7.43;;;7.90;99.90;;;;;;5067481;28;20407;-71
2023/04/20 03:13:14;;;;;;;12.90;8.07;;;7.90;99.90;;;;;;5069591;28;20042;-72
2023/04/20 03:15:41;;;;;;;9.87;6.70;;;8.00;99.90;;;;;;5069693;28;20032;-68
2023/04/20 03:18:07;;;;;;;13.77;7.65;;;8.00;99.90;;;;;;5071734;28;20720;-70
2023/04/20 03:20:33;;;;;;;13.30;8.63;;;8.00;99.90;;;;;;5067870;28;20500;-70
2023/04/20 03:22:58;;;;;;;12.65;7.18;;;7.90;99.90;;;;;;5070093;28;20032;-70
2023/04/20 03:25:24;;;;;;;15.30;7.03;;;8.00;99.90;;;;;;5073315;28;20488;-69
2023/04/20 03:27:50;;;;;;;14.73;7.50;;;8.10;99.90;;;;;;5068516;28;20028;-67
2023/04/20 03:30:15;;;;;;;13.80;8.43;;;8.00;99.90;;;;;;5068738;28;20462;-69
2023/04/20 03:32:41;;;;;;;12.97;7.53;;;8.10;99.90;;;;;;5068212;28;20111;-70
2023/04/20 03:35:07;;;;;;;12.00;7.87;;;8.20;99.90;;;;;;5067282;28;20704;-68
2023/04/20 03:37:35;;;;;;;15.98;8.18;;;8.10;99.90;;;;;;5067827;28;20044;-67
2023/04/20 03:40:01;;;;;;;17.63;7.57;;;8.20;99.90;;;;;;5070720;28;20455;-70
2023/04/20 03:42:26;;;;;;;18.80;7.97;;;8.20;99.90;;;;;;5077132;28;20033;-71
2023/04/20 03:44:52;;;;;;;18.83;7.77;;;8.30;99.90;;;;;;5086996;28;20020;-70
2023/04/20 03:47:17;;;;;;;16.47;8.27;;;8.40;99.90;;;;;;5077554;28;20028;-71
2023/04/20 03:49:43;;;;;;;12.97;8.30;;;8.50;99.90;;;;;;5070908;28;20478;-70
2023/04/20 03:52:09;;;;;;;20.47;9.20;;;8.60;99.90;;;;;;5042686;28;20029;-70
2023/04/20 03:54:34;;;;;;;16.87;8.10;;;8.60;99.90;;;;;;5070427;28;20499;-70
2023/04/20 03:57:01;;;;;;;17.43;9.37;;;8.50;99.90;;;;;;5047312;28;20528;-70
2023/04/20 03:59:26;;;;;;;16.40;9.25;;;8.50;99.90;;;;;;5064808;28;20415;-70
2023/04/20 04:01:53;;;;;;;15.75;9.35;;;8.60;99.90;;;;;;5067925;28;20017;-71
2023/04/20 04:04:19;;;;;;;;;;;8.60;99.90;;;;;;5073122;28;20032;-71
2023/04/20 04:06:45;;;;;;;15.02;9.45;;;8.60;99.90;;;;;;5068297;28;19916;-71
2023/04/20 04:09:10;;;;;;;19.45;10.68;;;8.60;99.90;;;;;;5067229;28;20043;-70
2023/04/20 04:11:36;;;;;;;14.10;9.67;;;8.60;99.90;;;;;;5070975;28;21066;-70
2023/04/20 04:14:04;;;;;;;13.67;9.87;;;8.60;99.90;;;;;;5067248;28;20420;-71
2023/04/20 04:16:30;;;;;;;23.13;10.57;;;8.70;99.90;;;;;;5066013;28;20525;-71
2023/04/20 04:18:56;;;;;;;14.75;10.25;;;8.80;99.90;;;;;;5068964;28;20037;-72
2023/04/20 04:21:21;;;;;;;14.13;10.07;;;8.80;99.90;;;;;;5070133;28;20071;-68
2023/04/20 04:23:48;;;;;;;13.33;9.63;;;8.80;99.90;;;;;;5067123;28;20047;-71
2023/04/20 04:26:13;;;;;;;;;;;8.80;99.90;;;;;;5068802;28;20029;-71
2023/04/20 04:28:39;;;;;;;17.98;10.18;;;8.80;99.90;;;;;;5068621;28;19914;-71
2023/04/20 04:31:05;;;;;;;15.43;10.60;;;8.90;99.90;;;;;;5072049;28;20024;-69
2023/04/20 04:33:35;;;;;;;14.73;9.88;;;8.90;99.90;;;;;;5050705;28;20032;-71
2023/04/20 04:36:01;;;;;;;19.33;11.65;;;8.90;99.90;;;;;;5066864;28;20130;-71
2023/04/20 04:38:27;;;;;;;24.80;11.15;;;8.80;99.90;;;;;;5068913;28;20041;-71
2023/04/20 04:40:53;;;;;;;16.92;11.35;;;8.90;99.90;;;;;;5068353;28;20094;-70
2023/04/20 04:43:19;;;;;;;18.57;12.37;;;8.80;99.90;;;;;;5066556;28;20730;-68
2023/04/20 04:45:46;;;;;;;17.02;11.43;;;8.90;99.90;;;;;;5070451;28;20038;-69
2023/04/20 04:48:11;;;;;;;;;;;8.90;99.90;;;;;;5068857;28;20047;-70
2023/04/20 04:50:38;;;;;;;26.45;13.20;;;8.80;99.90;;;;;;5067330;28;20262;-70
2023/04/20 04:53:03;;;;;;;20.90;11.80;;;8.80;99.90;;;;;;5067307;28;20043;-70
2023/04/20 04:55:29;;;;;;;21.30;12.50;;;8.80;99.90;;;;;;5070130;28;20028;-70
2023/04/20 04:57:56;;;;;;;20.13;14.13;;;8.90;99.90;;;;;;5068289;28;20411;-70
2023/04/20 05:00:22;;;;;;;17.65;11.70;;;8.90;99.90;;;;;;5063949;28;20544;-70
2023/04/20 05:02:48;;;;;;;25.52;13.18;;;9.00;99.90;;;;;;5062679;28;20017;-70
2023/04/20 05:05:14;;;;;;;24.95;12.90;;;9.00;99.90;;;;;;5069206;28;20119;-70
2023/04/20 05:07:40;;;;;;;22.40;12.98;;;9.10;99.90;;;;;;5066539;28;20111;-70
2023/04/20 05:10:07;;;;;;;17.20;11.43;;;8.90;99.90;;;;;;5069188;28;20063;-70
2023/04/20 05:12:32;;;;;;;19.08;13.13;;;9.00;99.90;;;;;;5064624;28;20044;-69
2023/04/20 05:14:58;;;;;;;23.15;12.65;;;9.00;99.90;;;;;;5067000;28;20407;-71
2023/04/20 05:17:24;;;;;;;23.17;13.93;;;9.00;99.90;;;;;;5066612;28;20874;-71
2023/04/20 05:19:50;;;;;;;19.50;12.52;;;9.10;99.90;;;;;;5069535;28;20028;-69
2023/04/20 05:22:16;;;;;;;25.93;13.10;;;9.10;99.90;;;;;;5068971;28;20105;-70
2023/04/20 05:24:41;;;;;;;29.42;13.93;;;9.20;99.90;;;;;;5066589;28;20055;-70
2023/04/20 05:27:08;;;;;;;39.37;15.23;;;9.10;99.90;;;;;;5066942;28;20028;-69
2023/04/20 05:29:34;;;;;;;26.20;13.85;;;9.20;99.90;;;;;;5066711;28;20107;-71
2023/04/20 05:31:59;;;;;;;27.92;13.32;;;9.30;99.90;;;;;;5073545;28;20088;-68
2023/04/20 05:34:25;;;;;;;27.30;13.97;;;9.40;99.90;;;;;;5080958;28;20038;-70
2023/04/20 05:36:51;;;;;;;29.90;15.33;;;9.40;99.90;;;;;;5075253;28;20063;-71
2023/04/20 05:39:17;;;;;;;25.30;13.95;;;9.40;99.90;;;;;;5066899;28;20056;-67
2023/04/20 05:41:43;;;;;;;25.17;14.83;;;9.40;99.90;;;;;;5070320;28;20581;-68
2023/04/20 05:44:08;;;;;;;27.10;14.87;;;9.40;99.90;;;;;;5069560;28;20040;-67
2023/04/20 05:46:34;;;;;;;22.60;14.37;;;9.50;99.90;;;;;;5066386;28;20023;-68
2023/04/20 05:48:59;;;;;;;23.20;14.67;;;9.50;99.90;;;;;;5065599;28;20037;-69
2023/04/20 05:51:29;;;;;;;24.07;15.77;;;9.60;99.90;;;;;;5070839;28;20056;-71
2023/04/20 05:53:54;;;;;;;25.70;14.52;;;9.50;99.90;;;;;;5068614;28;20040;-72
2023/04/20 05:56:20;;;;;;;29.07;16.13;;;9.60;99.90;;;;;;5070339;28;20051;-73
2023/04/20 05:58:46;;;;;;;21.50;14.30;;;9.50;99.90;;;;;;5065925;28;20033;-71
2023/04/20 06:01:11;;;;;;;20.97;14.30;;;9.50;99.90;;;;;;5065732;28;20714;-69
2023/04/20 06:03:37;;;;;;;24.73;15.80;;;9.60;99.90;;;;;;5069688;28;20086;-70
2023/04/20 06:06:03;;;;;;;22.27;14.68;;;9.60;99.90;;;;;;5067780;28;20534;-68
2023/04/20 06:08:29;;;;;;;28.43;14.03;;;9.60;99.90;;;;;;5067518;28;20060;-71
2023/04/20 06:10:55;;;;;;;23.53;15.37;;;9.80;99.90;;;;;;5066847;28;20690;-68
2023/04/20 06:13:21;;;;;;;25.80;15.48;;;9.80;99.90;;;;;;5065805;28;20095;-71
2023/04/20 06:15:47;;;;;;;25.03;16.40;;;9.80;99.90;;;;;;5065960;28;20570;-71
2023/04/20 06:18:13;;;;;;;26.95;16.25;;;9.70;99.90;;;;;;5067608;28;20044;-69
2023/04/20 06:20:39;;;;;;;30.37;17.13;;;9.80;99.90;;;;;;5070487;28;20445;-68
2023/04/20 06:23:05;;;;;;;26.35;16.98;;;9.70;99.90;;;;;;5066943;28;20035;-69
2023/04/20 06:25:30;;;;;;;30.13;17.20;;;9.80;99.90;;;;;;5067380;28;20029;-71
2023/04/20 06:27:56;;;;;;;29.70;16.70;;;10.00;99.90;;;;;;5067035;28;20294;-72
2023/04/20 06:30:22;;;;;;;26.10;17.73;;;10.00;99.90;;;;;;5063902;28;20040;-71
2023/04/20 06:32:47;;;;;;;25.97;16.17;;;9.90;99.90;;;;;;5062710;28;20501;-69
2023/04/20 06:35:13;;;;;;;32.07;16.07;;;10.10;99.90;;;;;;5061726;28;20095;-69
2023/04/20 06:37:39;;;;;;;26.80;15.77;;;9.90;99.90;;;;;;5065755;28;20032;-68
2023/04/20 06:40:09;;;;;;;24.10;15.77;;;10.00;99.90;;;;;;5064788;28;20041;-70
2023/04/20 06:42:36;;;;;;;27.33;16.08;;;10.10;99.90;;;;;;5069315;28;20032;-69
2023/04/20 06:45:01;;;;;;;26.92;16.70;;;10.00;99.90;;;;;;5062804;28;20027;-69
2023/04/20 06:47:30;;;;;;;25.50;16.10;;;10.30;99.90;;;;;;5065349;28;20032;-70
2023/04/20 06:49:59;;;;;;;24.58;15.95;;;10.30;99.90;;;;;;5064824;28;20531;-71
2023/04/20 06:52:25;;;;;;;24.90;16.38;;;10.50;99.90;;;;;;5065287;28;20028;-70
2023/04/20 06:54:51;;;;;;;33.38;16.08;;;10.70;99.90;;;;;;5065588;28;20043;-70
2023/04/20 06:57:17;;;;;;;24.23;16.17;;;10.80;99.90;;;;;;5070054;28;20028;-71
2023/04/20 06:59:42;;;;;;;25.60;16.23;;;10.70;99.90;;;;;;5070612;28;20028;-70
2023/04/20 07:02:08;;;;;;;26.40;15.80;;;10.70;99.90;;;;;;5070965;28;20020;-70
2023/04/20 07:04:33;;;;;;;27.60;16.87;;;10.80;99.90;;;;;;5067810;28;20051;-70
2023/04/20 07:06:59;;;;;;;27.17;17.57;;;10.80;99.90;;;;;;5070492;28;20117;-68
2023/04/20 07:09:26;;;;;;;24.67;16.40;;;10.70;99.90;;;;;;5068267;28;20052;-68
2023/04/20 07:11:52;;;;;;;23.42;16.67;;;10.70;99.90;;;;;;5071976;28;20029;-69
2023/04/20 07:14:17;;;;;;;25.23;16.80;;;10.40;99.90;;;;;;5068400;28;20506;-68
2023/04/20 07:16:43;;;;;;;25.17;16.43;;;10.40;99.90;;;;;;5067702;28;20028;-70
2023/04/20 07:19:08;;;;;;;24.03;15.83;;;10.60;99.90;;;;;;5070465;28;20044;-69
2023/04/20 07:21:34;;;;;;;23.65;16.38;;;10.60;99.90;;;;;;5078273;28;20040;-67
2023/04/20 07:24:00;;;;;;;26.92;16.13;;;10.50;99.90;;;;;;5074683;28;20044;-69
2023/04/20 07:26:26;;;;;;;23.67;16.07;;;10.70;99.90;;;;;;5074005;28;20074;-68
2023/04/20 07:28:52;;;;;;;24.98;16.02;;;10.60;99.90;;;;;;5070476;28;20540;-69
2023/04/20 07:31:18;;;;;;;23.80;16.33;;;10.60;99.90;;;;;;5068527;28;20116;-70
2023/04/20 07:33:44;;;;;;;22.20;16.30;;;10.60;99.90;;;;;;5072816;28;20389;-69
2023/04/20 07:36:10;;;;;;;26.58;16.75;;;10.90;99.90;;;;;;5070844;28;20119;-69
2023/04/20 07:38:35;;;;;;;37.67;17.13;;;11.20;99.90;;;;;;5070158;28;20126;-67
2023/04/20 07:41:02;;;;;;;29.27;16.30;;;11.40;99.90;;;;;;5067904;28;20452;-68
2023/04/20 07:43:27;;;;;;;25.17;16.42;;;11.30;99.90;;;;;;5070046;28;20389;-70
2023/04/20 07:45:53;;;;;;;26.40;17.63;;;11.20;99.90;;;;;;5068388;28;20103;-70
2023/04/20 07:48:21;;;;;;;26.92;16.63;;;11.10;99.90;;;;;;5069617;28;20270;-66
2023/04/20 07:50:47;;;;;;;27.10;15.75;;;11.10;99.90;;;;;;5069372;28;20520;-67
2023/04/20 07:53:13;;;;;;;26.73;15.87;;;11.00;99.90;;;;;;5070349;28;20060;-70
2023/04/20 07:55:38;;;;;;;23.98;16.35;;;10.90;99.90;;;;;;5065029;28;20063;-70
2023/04/20 07:58:04;;;;;;;23.00;16.20;;;10.90;99.90;;;;;;5070732;28;20507;-67
2023/04/20 08:00:29;;;;;;;24.53;16.80;;;11.00;99.90;;;;;;5069101;28;20459;-68
2023/04/20 08:02:55;;;;;;;26.77;16.70;;;11.00;99.90;;;;;;5050251;28;20044;-70
2023/04/20 08:05:21;;;;;;;23.57;15.70;;;11.00;99.90;;;;;;5067198;28;20582;-73
2023/04/20 08:07:46;;;;;;;21.77;16.13;;;11.10;99.90;;;;;;5067912;28;20036;-73
2023/04/20 08:10:12;;;;;;;26.63;16.73;;;11.10;99.90;;;;;;5068474;28;20036;-72
2023/04/20 08:12:38;;;;;;;26.03;16.90;;;11.00;99.90;;;;;;5070152;28;20032;-72
2023/04/20 08:15:05;;;;;;;23.45;16.08;;;11.10;99.90;;;;;;5071336;28;20035;-72
2023/04/20 08:17:32;;;;;;;25.38;16.17;;;11.20;99.90;;;;;;5068299;28;20052;-70
2023/04/20 08:19:57;;;;;;;23.58;15.30;;;11.20;99.90;;;;;;5069516;28;20048;-71
2023/04/20 08:22:26;;;;;;;24.80;15.50;;;11.10;99.90;;;;;;5073645;28;20979;-72
2023/04/20 08:24:51;;;;;;;24.23;15.35;;;10.80;99.90;;;;;;5066594;28;20032;-70
2023/04/20 08:27:17;;;;;;;22.85;15.48;;;10.80;99.90;;;;;;5068824;28;20028;-69
2023/04/20 08:29:43;;;;;;;23.33;14.60;;;10.60;99.90;;;;;;5070361;28;20569;-69
2023/04/20 08:32:08;;;;;;;21.23;14.50;;;10.60;99.90;;;;;;5071375;28;20039;-69
2023/04/20 08:34:34;;;;;;;28.90;15.33;;;10.60;99.90;;;;;;5073328;28;20048;-68
2023/04/20 08:37:00;;;;;;;27.17;13.60;;;10.40;99.90;;;;;;5070119;28;20039;-68
2023/04/20 08:39:26;;;;;;;20.02;13.90;;;10.50;99.90;;;;;;5065789;28;20102;-68
2023/04/20 08:41:56;;;;;;;20.90;12.67;;;10.40;99.90;;;;;;5063062;28;20025;-67
2023/04/20 08:44:22;;;;;;;18.05;13.10;;;10.30;99.90;;;;;;5069133;28;20093;-69
2023/04/20 08:46:49;;;;;;;19.75;12.48;;;10.30;99.90;;;;;;5067776;28;20024;-71
2023/04/20 08:49:16;;;;;;;20.90;12.10;;;10.20;99.90;;;;;;5067335;28;20048;-69
2023/04/20 08:51:46;;;;;;;24.88;12.55;;;10.10;99.90;;;;;;5071840;28;20063;-69
2023/04/20 08:54:13;;;;;;;14.85;11.45;;;10.20;99.90;;;;;;5063135;28;20036;-67
2023/04/20 08:56:40;;;;;;;16.50;12.13;;;10.30;99.90;;;;;;5078203;28;20104;-66
2023/04/20 08:59:09;;;;;;;21.95;12.70;;;10.20;99.90;;;;;;5068607;28;20505;-69
2023/04/20 09:01:37;;;;;;;23.33;12.70;;;10.30;99.90;;;;;;5062528;28;20553;-69
2023/04/20 09:04:14;;;;;;;20.98;12.15;;;10.20;99.90;;;;;;5065929;28;20032;-69
2023/04/20 09:06:46;;;;;;;22.13;12.85;;;10.50;99.90;;;;;;5074531;28;20484;-68
2023/04/20 09:09:11;;;;;;;25.42;13.25;;;10.60;99.90;;;;;;5074316;28;20503;-69
2023/04/20 09:11:39;;;;;;;21.00;12.88;;;10.70;99.90;;;;;;5067550;28;20073;-67
2023/04/20 09:14:11;;;;;;;17.75;12.40;;;10.80;99.90;;;;;;5069063;28;20037;-67
2023/04/20 09:16:38;;;;;;;27.80;12.90;;;10.90;99.90;;;;;;5069380;28;20404;-69
2023/04/20 09:19:04;;;;;;;29.05;11.88;;;11.00;99.90;;;;;;5066905;28;20385;-70
2023/04/20 09:21:31;;;;;;;18.83;12.40;;;11.20;99.90;;;;;;5065070;28;20028;-69
2023/04/20 09:24:06;;;;;;;20.63;12.43;;;11.30;99.90;;;;;;5068958;28;20475;-70
2023/04/20 09:26:33;;;;;;;18.38;11.55;;;11.50;99.90;;;;;;5067190;28;20450;-68
2023/04/20 09:28:59;;;;;;;;;;;11.60;99.90;;;;;;5071050;28;20043;-69
2023/04/20 09:31:25;;;;;;;20.42;12.57;;;11.70;99.90;;;;;;5067476;28;19912;-67
2023/04/20 09:34:01;;;;;;;18.87;12.03;;;11.70;99.90;;;;;;5066544;28;20024;-69
2023/04/20 09:36:44;;;;;;;16.77;11.10;;;11.70;99.90;;;;;;5064311;28;20032;-68
2023/04/20 09:39:19;;;;;;;13.98;10.70;;;11.70;99.90;;;;;;5061949;28;20050;-69
2023/04/20 09:41:45;;;;;;;17.13;10.55;;;11.70;99.90;;;;;;5081295;28;20033;-70
2023/04/20 09:44:11;;;;;;;17.63;10.77;;;11.60;99.90;;;;;;5063036;28;20068;-70
2023/04/20 09:46:39;;;;;;;15.55;10.65;;;11.40;99.90;;;;;;5063163;28;20032;-69
2023/04/20 09:49:09;;;;;;;15.32;10.75;;;11.30;99.90;;;;;;5062256;28;20039;-67
2023/04/20 09:51:37;;;;;;;15.02;9.98;;;11.40;99.90;;;;;;5062084;28;20107;-67
2023/04/20 09:54:04;;;;;;;16.23;9.32;;;11.30;99.90;;;;;;5065755;28;20102;-69
2023/04/20 09:56:31;;;;;;;14.27;9.73;;;11.10;99.90;;;;;;5061725;28;20077;-71
2023/04/20 09:58:58;;;;;;;12.40;9.57;;;11.10;99.90;;;;;;5061111;28;20076;-69
2023/04/20 10:01:24;;;;;;;13.48;9.10;;;11.00;99.90;;;;;;5058822;28;20051;-70
2023/04/20 10:03:54;;;;;;;15.25;9.63;;;10.90;99.90;;;;;;5058364;28;20037;-68
2023/04/20 10:06:26;;;;;;;20.48;9.43;;;11.00;99.90;;;;;;5062742;28;20032;-69
2023/04/20 10:08:52;;;;;;;12.25;9.07;;;11.00;99.90;;;;;;5062730;28;20036;-68
2023/04/20 10:11:28;;;;;;;13.32;9.85;;;11.10;99.90;;;;;;5063408;28;20411;-68
2023/04/20 10:13:55;;;;;;;17.85;9.45;;;10.90;99.90;;;;;;5029019;28;20170;-70
2023/04/20 10:16:20;;;;;;;;;;;10.90;99.90;;;;;;5060805;28;20029;-70
2023/04/20 10:18:57;;;;;;;16.55;8.98;;;10.70;99.90;;;;;;5059471;28;19927;-70
2023/04/20 10:21:22;;;;;;;14.73;8.90;;;10.60;99.90;;;;;;5060285;28;20590;-67
2023/04/20 10:23:51;;;;;;;11.30;7.97;;;10.50;99.90;;;;;;5061885;28;20033;-69
2023/04/20 10:26:17;;;;;;;13.98;8.65;;;10.60;99.90;;;;;;5059802;28;20028;-69
2023/04/20 10:28:43;;;;;;;10.70;7.70;;;10.60;99.90;;;;;;5060953;28;20040;-69
2023/04/20 10:31:12;;;;;;;9.80;7.25;;;10.60;99.90;;;;;;5066270;28;20059;-69
2023/04/20 10:33:58;;;;;;;9.68;6.93;;;10.60;99.90;;;;;;5066562;28;20029;-69
2023/04/20 10:36:33;;;;;;;10.20;6.60;;;10.50;99.90;;;;;;5065107;28;20036;-68
2023/04/20 10:39:03;;;;;;;10.88;7.18;;;10.40;99.90;;;;;;5066373;28;20154;-68
2023/04/20 10:41:29;;;;;;;10.35;7.22;;;10.30;99.90;;;;;;5064286;28;20036;-68
2023/04/20 10:44:06;;;;;;;19.73;7.55;;;10.40;99.90;;;;;;5064267;28;20511;-69
2023/04/20 10:46:32;;;;;;;11.45;7.35;;;10.30;99.90;;;;;;5064174;28;20036;-67
2023/04/20 10:49:00;;;;;;;10.60;7.33;;;10.30;99.90;;;;;;5066861;28;20044;-67
2023/04/20 10:51:26;;;;;;;13.82;8.07;;;10.50;99.90;;;;;;5074385;28;20043;-67
2023/04/20 10:54:04;;;;;;;11.93;7.05;;;10.50;99.90;;;;;;5074282;28;20025;-68
2023/04/20 10:56:36;;;;;;;;;;;10.60;99.90;;;;;;5062795;28;20115;-66
2023/04/20 10:59:07;;;;;;;12.05;7.68;;;10.70;99.90;;;;;;5063545;28;19963;-68
2023/04/20 11:01:33;;;;;;;9.93;7.00;;;10.70;99.90;;;;;;5065650;28;20111;-68
2023/04/20 11:03:58;;;;;;;9.63;7.60;;;10.80;99.90;;;;;;5064598;28;20159;-67
2023/04/20 11:06:26;;;;;;;9.23;7.23;;;10.80;99.90;;;;;;5064618;28;20443;-68
2023/04/20 11:08:52;;;;;;;13.52;7.97;;;10.70;99.90;;;;;;5066128;28;20302;-69
2023/04/20 11:11:24;;;;;;;19.27;7.93;;;10.50;99.90;;;;;;5064271;28;20024;-67
2023/04/20 11:13:50;;;;;;;11.75;6.97;;;10.30;99.90;;;;;;5066004;28;20083;-69
2023/04/20 11:16:17;;;;;;;11.93;6.50;;;10.00;99.90;;;;;;5061961;28;20024;-68
2023/04/20 11:18:51;;;;;;;10.80;6.60;;;10.00;99.90;;;;;;5064713;28;20094;-69
2023/04/20 11:21:17;;;;;;;9.63;7.07;;;10.10;99.90;;;;;;5063884;28;20063;-68
2023/04/20 11:23:43;;;;;;;9.75;6.57;;;10.20;99.90;;;;;;5064209;28;20420;-68
2023/04/20 11:26:09;;;;;;;12.77;6.88;;;10.20;99.90;;;;;;5064505;28;20462;-68
2023/04/20 11:28:35;;;;;;;12.23;6.60;;;10.30;99.90;;;;;;5063867;28;20028;-68
2023/04/20 11:31:01;;;;;;;9.27;7.10;;;10.60;99.90;;;;;;5061492;28;20040;-66
2023/04/20 11:33:27;;;;;;;9.83;7.27;;;10.70;99.90;;;;;;5058824;28;20028;-68
2023/04/20 11:35:54;;;;;;;;;;;10.80;99.90;;;;;;5067460;28;20032;-68
2023/04/20 11:38:33;;;;;;;12.48;7.82;;;10.90;99.90;;;;;;5064799;28;19916;-67
2023/04/20 11:41:03;;;;;;;8.73;6.72;;;11.00;99.90;;;;;;5066386;28;20078;-69
2023/04/20 11:43:31;;;;;;;9.70;6.88;;;11.10;99.90;;;;;;5069041;28;20025;-70
2023/04/20 11:45:58;;;;;;;9.95;6.60;;;10.90;99.90;;;;;;5065866;28;20032;-67
2023/04/20 11:48:24;;;;;;;;;;;11.00;99.90;;;;;;5067635;28;20483;-69
2023/04/20 11:50:50;;;;;;;9.20;6.05;;;10.90;99.90;;;;;;5069833;28;19919;-69
2023/04/20 11:53:16;;;;;;;10.23;6.27;;;10.90;99.90;;;;;;5071567;28;20029;-70
2023/04/20 11:55:42;;;;;;;10.93;6.95;;;11.10;99.90;;;;;;5075691;28;20105;-68
2023/04/20 11:58:08;;;;;;;10.50;6.50;;;11.50;99.90;;;;;;5066999;28;20097;-70
2023/04/20 12:00:34;;;;;;;10.57;6.17;;;11.40;99.90;;;;;;5067169;28;20028;-70
2023/04/20 12:03:00;;;;;;;9.00;6.72;;;11.20;99.90;;;;;;5066869;28;20609;-69
2023/04/20 12:05:27;;;;;;;8.95;6.35;;;11.40;99.90;;;;;;5064609;28;20170;-70
2023/04/20 12:07:53;;;;;;;7.35;5.45;;;11.60;99.90;;;;;;5065384;28;20071;-69
2023/04/20 12:10:19;;;;;;;8.70;5.70;;;11.70;99.90;;;;;;5063446;28;20459;-70
2023/04/20 12:12:44;;;;;;;10.23;6.13;;;11.60;99.90;;;;;;5062553;28;20396;-69
2023/04/20 12:15:11;;;;;;;11.00;6.97;;;12.50;99.90;;;;;;5063810;28;20029;-68
2023/04/20 12:17:37;;;;;;;10.18;6.45;;;12.60;99.90;;;;;;5063567;28;20032;-68
2023/04/20 12:20:07;;;;;;;9.70;7.30;;;12.90;99.90;;;;;;5063433;28;20121;-70
2023/04/20 12:22:33;;;;;;;11.35;7.07;;;14.00;99.90;;;;;;5061984;28;20786;-68
2023/04/20 12:24:59;;;;;;;9.85;6.60;;;15.10;99.90;;;;;;5062753;28;20149;-68
2023/04/20 12:27:25;;;;;;;11.02;6.82;;;14.90;99.90;;;;;;5062974;28;20040;-69
2023/04/20 12:29:51;;;;;;;8.27;6.90;;;14.50;99.90;;;;;;5063725;28;20051;-69
2023/04/20 12:32:16;;;;;;;8.50;6.43;;;15.20;99.90;;;;;;5064646;28;20029;-71
2023/04/20 12:34:42;;;;;;;12.33;7.23;;;15.30;99.90;;;;;;5070062;28;20028;-68
2023/04/20 12:37:08;;;;;;;10.47;6.67;;;15.40;99.90;;;;;;5073609;28;20028;-69